createdAt,value
2023-04-17T00:01:30.699Z,99261.81
2023-04-17T00:03:58.174Z,99266.13
2023-04-17T00:06:27.090Z,99281.69
2023-04-17T00:08:54.044Z,99276.50
2023-04-17T00:11:21.494Z,99273.94
2023-04-17T00:13:48.088Z,99284.25
2023-04-17T00:16:14.708Z,99292.91
2023-04-17T00:18:41.318Z,99296.38
2023-04-17T00:21:07.911Z,99293.78
2023-04-17T00:23:34.494Z,99295.50
2023-04-17T00:26:01.191Z,99293.78
2023-04-17T00:28:27.764Z,99291.19
2023-04-17T00:30:54.323Z,99301.56
2023-04-17T00:33:20.979Z,99294.66
2023-04-17T00:35:47.915Z,99300.69
2023-04-17T00:38:14.475Z,99307.59
2023-04-17T00:40:42.112Z,99313.63
2023-04-17T00:43:08.703Z,99317.06
2023-04-17T00:45:35.559Z,99314.50
2023-04-17T00:48:03.670Z,99311.06
2023-04-17T00:50:31.030Z,99339.47
2023-04-17T00:52:58.521Z,99337.75
2023-04-17T00:55:25.611Z,99334.28
2023-04-17T00:57:52.293Z,99359.25
2023-04-17T01:00:18.926Z,99338.59
2023-04-17T01:02:45.880Z,99342.03
2023-04-17T01:05:13.018Z,99342.91
2023-04-17T01:07:41.298Z,99344.63
2023-04-17T01:10:08.292Z,99347.19
2023-04-17T01:12:34.961Z,99365.25
2023-04-17T01:15:01.521Z,99356.66
2023-04-17T01:17:28.398Z,99362.69
2023-04-17T01:19:55.536Z,99364.38
2023-04-17T01:22:22.180Z,99365.25
2023-04-17T01:24:49.085Z,99361.81
2023-04-17T01:27:15.706Z,99363.50
2023-04-17T01:29:42.646Z,99367.84
2023-04-17T01:32:09.269Z,99382.47
2023-04-17T01:34:37.407Z,99391.91
2023-04-17T01:37:04.459Z,99385.88
2023-04-17T01:39:31.375Z,99382.44
2023-04-17T01:41:57.981Z,99380.75
2023-04-17T01:44:24.559Z,99389.34
2023-04-17T01:46:51.308Z,99386.75
2023-04-17T01:49:17.910Z,99391.03
2023-04-17T01:51:44.472Z,99394.50
2023-04-17T01:54:11.063Z,99393.63
2023-04-17T01:56:37.692Z,99388.47
2023-04-17T01:59:04.237Z,99397.91
2023-04-17T02:01:31.208Z,99401.34
2023-04-17T02:03:58.012Z,99416.81
2023-04-17T02:06:25.546Z,99409.09
2023-04-17T02:08:52.121Z,99409.06
2023-04-17T02:11:18.674Z,99415.94
2023-04-17T02:13:45.224Z,99410.78
2023-04-17T02:16:12.707Z,99411.59
2023-04-17T02:18:39.779Z,99413.31
2023-04-17T02:21:06.640Z,99415.03
2023-04-17T02:23:33.212Z,99407.28
2023-04-17T02:25:59.751Z,99422.78
2023-04-17T02:28:26.373Z,99416.78
2023-04-17T02:30:53.034Z,99427.94
2023-04-17T02:33:19.801Z,99422.78
2023-04-17T02:35:46.625Z,99424.50
2023-04-17T02:38:13.237Z,99427.94
2023-04-17T02:40:39.942Z,99427.94
2023-04-17T02:43:06.518Z,99429.69
2023-04-17T02:45:33.120Z,99430.53
2023-04-17T02:47:59.801Z,99428.84
2023-04-17T02:50:26.437Z,99432.31
2023-04-17T02:52:53.014Z,99422.00
2023-04-17T02:55:19.709Z,99430.59
2023-04-17T02:57:46.328Z,99429.72
2023-04-17T03:00:14.162Z,99430.59
2023-04-17T03:02:41.374Z,99429.75
2023-04-17T03:05:08.323Z,99440.94
2023-04-17T03:07:34.976Z,99438.38
2023-04-17T03:10:01.649Z,99439.25
2023-04-17T03:12:28.410Z,99437.50
2023-04-17T03:14:54.991Z,99435.84
2023-04-17T03:17:21.608Z,99453.03
2023-04-17T03:19:48.146Z,99449.59
2023-04-17T03:22:14.747Z,99449.59
2023-04-17T03:24:41.742Z,99463.38
2023-04-17T03:27:08.433Z,99479.72
2023-04-17T03:29:35.162Z,99501.22
2023-04-17T03:32:01.797Z,99515.03
2023-04-17T03:34:29.143Z,99518.50
2023-04-17T03:36:55.884Z,99519.38
2023-04-17T03:39:22.485Z,99527.19
2023-04-17T03:41:49.004Z,99510.84
2023-04-17T03:44:17.385Z,99514.28
2023-04-17T03:46:43.946Z,99499.63
2023-04-17T03:49:10.727Z,99503.09
2023-04-17T03:51:37.423Z,99508.25
2023-04-17T03:54:04.119Z,99510.03
2023-04-17T03:56:30.746Z,99508.28
2023-04-17T03:58:57.298Z,99506.53
2023-04-17T04:01:28.163Z,99510.81
2023-04-17T04:03:55.279Z,99516.84
2023-04-17T04:06:22.638Z,99518.59
2023-04-17T04:08:49.568Z,99522.06
2023-04-17T04:11:16.445Z,99521.22
2023-04-17T04:13:43.076Z,99522.06
2023-04-17T04:16:13.109Z,99533.28
2023-04-17T04:18:39.808Z,99534.13
2023-04-17T04:21:06.503Z,99531.56
2023-04-17T04:23:33.836Z,99534.16
2023-04-17T04:26:01.866Z,99518.63
2023-04-17T04:28:30.296Z,99517.75
2023-04-17T04:30:58.970Z,99532.41
2023-04-17T04:33:27.711Z,99540.16
2023-04-17T04:35:56.150Z,99536.72
2023-04-17T04:38:29.955Z,99543.59
2023-04-17T04:41:01.420Z,99547.88
2023-04-17T04:43:32.208Z,99551.31
2023-04-17T04:45:58.830Z,99553.06
2023-04-17T04:48:25.376Z,99551.34
2023-04-17T04:50:52.176Z,99563.41
2023-04-17T04:53:18.831Z,99570.28
2023-04-17T04:55:45.587Z,99557.28
2023-04-17T04:58:12.239Z,99561.56
2023-04-17T05:00:38.957Z,99559.78
2023-04-17T05:03:06.606Z,99551.16
2023-04-17T05:05:33.414Z,99551.13
2023-04-17T05:07:59.950Z,99552.84
2023-04-17T05:10:26.592Z,99554.59
2023-04-17T05:12:53.122Z,99545.97
2023-04-17T05:15:19.679Z,99543.38
2023-04-17T05:17:46.704Z,99548.50
2023-04-17T05:20:14.969Z,99547.56
2023-04-17T05:22:41.515Z,99549.25
2023-04-17T05:25:08.588Z,99550.03
2023-04-17T05:27:35.114Z,99560.38
2023-04-17T05:30:01.782Z,99550.03
2023-04-17T05:32:31.367Z,99558.69
2023-04-17T05:34:58.013Z,99553.53
2023-04-17T05:37:24.682Z,99568.22
2023-04-17T05:39:51.278Z,99561.31
2023-04-17T05:42:17.889Z,99547.50
2023-04-17T05:44:44.463Z,99561.31
2023-04-17T05:47:11.001Z,99561.25
2023-04-17T05:49:37.530Z,99563.81
2023-04-17T05:52:04.223Z,99561.16
2023-04-17T05:54:30.770Z,99560.19
2023-04-17T05:56:57.454Z,99556.69
2023-04-17T05:59:23.993Z,99556.66
2023-04-17T06:01:51.191Z,99555.75
2023-04-17T06:04:18.661Z,99555.66
2023-04-17T06:06:45.668Z,99559.06
2023-04-17T06:09:12.506Z,99561.66
2023-04-17T06:11:39.306Z,99560.81
2023-04-17T06:14:05.942Z,99562.50
2023-04-17T06:16:32.607Z,99552.06
2023-04-17T06:18:59.332Z,99558.09
2023-04-17T06:21:26.011Z,99552.03
2023-04-17T06:23:52.623Z,99565.00
2023-04-17T06:26:19.227Z,99550.25
2023-04-17T06:28:45.785Z,99561.47
2023-04-17T06:31:12.469Z,99551.94
2023-04-17T06:33:39.223Z,99552.75
2023-04-17T06:36:06.369Z,99554.41
2023-04-17T06:38:33.132Z,99551.69
2023-04-17T06:40:59.712Z,99547.22
2023-04-17T06:43:26.298Z,99553.16
2023-04-17T06:45:53.108Z,99556.56
2023-04-17T06:48:19.693Z,99553.06
2023-04-17T06:50:46.248Z,99559.03
2023-04-17T06:53:12.843Z,99554.63
2023-04-17T06:55:39.410Z,99559.72
2023-04-17T06:58:07.863Z,99549.34
2023-04-17T07:00:34.472Z,99552.69
2023-04-17T07:03:01.828Z,99548.19
2023-04-17T07:05:28.625Z,99552.47
2023-04-17T07:07:55.561Z,99547.22
2023-04-17T07:10:22.098Z,99544.50
2023-04-17T07:12:48.718Z,99542.66
2023-04-17T07:15:16.352Z,99546.09
2023-04-17T07:17:43.033Z,99544.31
2023-04-17T07:20:10.158Z,99550.34
2023-04-17T07:22:36.918Z,99546.63
2023-04-17T07:25:04.603Z,99543.81
2023-04-17T07:27:31.260Z,99544.66
2023-04-17T07:29:57.857Z,99543.81
2023-04-17T07:32:24.795Z,99538.69
2023-04-17T07:34:51.512Z,99541.22
2023-04-17T07:37:18.133Z,99549.75
2023-04-17T07:39:45.421Z,99549.81
2023-04-17T07:42:12.018Z,99544.91
2023-04-17T07:44:39.121Z,99546.69
2023-04-17T07:47:05.962Z,99553.72
2023-04-17T07:49:32.788Z,99559.00
2023-04-17T07:51:59.810Z,99564.31
2023-04-17T07:54:26.505Z,99572.91
2023-04-17T07:56:53.038Z,99571.31
2023-04-17T07:59:19.572Z,99572.13
2023-04-17T08:01:46.180Z,99572.91
2023-04-17T08:04:13.364Z,99575.41
2023-04-17T08:06:40.527Z,99568.44
2023-04-17T08:09:07.177Z,99566.69
2023-04-17T08:11:42.744Z,99551.94
2023-04-17T08:14:17.504Z,99553.56
2023-04-17T08:16:44.069Z,99543.13
2023-04-17T08:19:11.007Z,99558.88
2023-04-17T08:21:37.721Z,99554.53
2023-04-17T08:24:04.560Z,99544.34
2023-04-17T08:26:31.575Z,99541.03
2023-04-17T08:29:01.608Z,99526.47
2023-04-17T08:31:28.936Z,99528.19
2023-04-17T08:34:06.180Z,99539.34
2023-04-17T08:36:40.322Z,99535.03
2023-04-17T08:39:07.023Z,99520.94
2023-04-17T08:41:39.512Z,99517.25
2023-04-17T08:44:06.272Z,99522.22
2023-04-17T08:46:34.702Z,99490.97
2023-04-17T08:49:02.977Z,99482.16
2023-04-17T08:51:29.541Z,99474.91
2023-04-17T08:53:56.191Z,99481.53
2023-04-17T08:56:22.867Z,99484.50
2023-04-17T08:58:49.460Z,99483.25
2023-04-17T09:01:16.723Z,99465.88
2023-04-17T09:03:44.127Z,99452.09
2023-04-17T09:06:11.360Z,99464.28
2023-04-17T09:08:38.491Z,99473.53
2023-04-17T09:11:05.482Z,99452.34
2023-04-17T09:13:38.914Z,99449.28
2023-04-17T09:16:06.923Z,99458.50
2023-04-17T09:18:34.628Z,99441.81
2023-04-17T09:21:01.617Z,99417.44
2023-04-17T09:23:29.802Z,99417.16
2023-04-17T09:26:06.863Z,99437.69
2023-04-17T09:28:39.152Z,99434.34
2023-04-17T09:31:07.163Z,99428.91
2023-04-17T09:33:33.850Z,99394.16
2023-04-17T09:36:21.480Z,99418.06
2023-04-17T09:38:48.755Z,99395.38
2023-04-17T09:41:28.044Z,99416.69
2023-04-17T09:43:55.793Z,99403.03
2023-04-17T09:46:32.417Z,99387.56
2023-04-17T09:49:05.006Z,99386.88
2023-04-17T09:51:32.022Z,99367.16
2023-04-17T09:53:59.139Z,99376.41
2023-04-17T09:56:28.062Z,99389.59
2023-04-17T09:58:54.665Z,99394.63
2023-04-17T10:01:21.698Z,99399.34
2023-04-17T10:03:48.796Z,99371.59
2023-04-17T10:06:16.357Z,99359.34
2023-04-17T10:08:43.203Z,99350.56
2023-04-17T10:11:09.876Z,99343.56
2023-04-17T10:13:38.676Z,99346.50
2023-04-17T10:16:06.046Z,99359.56
2023-04-17T10:18:32.979Z,99356.91
2023-04-17T10:21:19.118Z,99355.09
2023-04-17T10:23:45.887Z,99350.53
2023-04-17T10:26:24.965Z,99357.88
2023-04-17T10:28:53.166Z,99356.72
2023-04-17T10:31:20.776Z,99359.34
2023-04-17T10:33:51.549Z,99350.34
2023-04-17T10:36:36.693Z,99336.78
2023-04-17T10:39:18.580Z,99341.31
2023-04-17T10:42:03.777Z,99355.63
2023-04-17T10:44:39.931Z,99360.88
2023-04-17T10:47:15.908Z,99348.63
2023-04-17T10:49:49.853Z,99357.06
2023-04-17T10:52:42.113Z,99364.72
2023-04-17T10:55:10.155Z,99367.97
2023-04-17T10:57:55.788Z,99368.53
2023-04-17T11:00:30.270Z,99360.97
2023-04-17T11:02:56.959Z,99362.56
2023-04-17T11:05:24.304Z,99373.16
2023-04-17T11:07:51.616Z,99365.47
2023-04-17T11:10:21.483Z,99359.75
2023-04-17T11:12:48.549Z,99365.56
2023-04-17T11:15:15.177Z,99361.88
2023-04-17T11:17:46.855Z,99356.28
2023-04-17T11:20:17.408Z,99370.16
2023-04-17T11:22:44.845Z,99377.16
2023-04-17T11:25:24.130Z,99385.72
2023-04-17T11:27:51.221Z,99391.94
2023-04-17T11:30:27.985Z,99401.94
2023-04-17T11:32:54.839Z,99388.56
2023-04-17T11:35:23.484Z,99391.13
2023-04-17T11:38:09.016Z,99386.69
2023-04-17T11:40:35.679Z,99380.06
2023-04-17T11:43:08.211Z,99371.50
2023-04-17T11:45:35.802Z,99364.34
2023-04-17T11:48:02.826Z,99381.69
2023-04-17T11:50:30.900Z,99363.72
2023-04-17T11:53:00.883Z,99353.69
2023-04-17T11:55:31.530Z,99343.78
2023-04-17T11:57:58.783Z,99343.88
2023-04-17T12:00:29.775Z,99345.03
2023-04-17T12:02:57.757Z,99342.44
2023-04-17T12:05:25.846Z,99346.66
2023-04-17T12:08:01.569Z,99344.47
2023-04-17T12:10:41.713Z,99338.19
2023-04-17T12:13:09.429Z,99330.97
2023-04-17T12:15:36.672Z,99318.38
2023-04-17T12:18:06.299Z,99318.28
2023-04-17T12:20:34.058Z,99308.75
2023-04-17T12:23:00.920Z,99314.16
2023-04-17T12:25:27.640Z,99306.59
2023-04-17T12:27:56.071Z,99313.41
2023-04-17T12:30:23.896Z,99307.59
2023-04-17T12:32:52.197Z,99308.50
2023-04-17T12:35:19.323Z,99317.06
2023-04-17T12:37:48.692Z,99294.19
2023-04-17T12:40:16.903Z,99279.94
2023-04-17T12:42:49.182Z,99272.38
2023-04-17T12:45:17.014Z,99250.41
2023-04-17T12:47:44.210Z,99248.75
2023-04-17T12:50:14.454Z,99222.00
2023-04-17T12:52:41.520Z,99230.06
2023-04-17T12:55:08.756Z,99209.38
2023-04-17T12:57:36.678Z,99212.38
2023-04-17T13:00:06.168Z,99225.41
2023-04-17T13:02:33.198Z,99234.66
2023-04-17T13:04:59.974Z,99231.38
2023-04-17T13:07:26.811Z,99237.31
2023-04-17T13:09:53.460Z,99242.00
2023-04-17T13:12:20.038Z,99246.69
2023-04-17T13:14:46.648Z,99251.69
2023-04-17T13:17:15.221Z,99250.13
2023-04-17T13:19:43.665Z,99255.38
2023-04-17T13:22:11.080Z,99270.00
2023-04-17T13:24:37.895Z,99290.63
2023-04-17T13:27:04.761Z,99305.19
2023-04-17T13:29:31.475Z,99310.53
2023-04-17T13:31:58.105Z,99314.28
2023-04-17T13:34:24.714Z,99316.56
2023-04-17T13:36:51.348Z,99334.47
2023-04-17T13:39:18.103Z,99359.22
2023-04-17T13:41:44.700Z,99359.31
2023-04-17T13:44:11.458Z,99357.63
2023-04-17T13:46:38.118Z,99365.66
2023-04-17T13:49:04.772Z,99347.69
2023-04-17T13:51:34.170Z,99351.47
2023-04-17T13:54:00.761Z,99352.16
2023-04-17T13:56:27.634Z,99374.81
2023-04-17T13:58:54.572Z,99390.06
2023-04-17T14:01:21.363Z,99388.69
2023-04-17T14:03:48.341Z,99393.34
2023-04-17T14:06:17.849Z,99388.97
2023-04-17T14:08:45.819Z,99393.81
2023-04-17T14:11:12.958Z,99378.03
2023-04-17T14:13:39.566Z,99370.81
2023-04-17T14:16:06.600Z,99345.59
2023-04-17T14:18:33.365Z,99337.69
2023-04-17T14:20:59.996Z,99341.28
2023-04-17T14:23:26.673Z,99330.41
2023-04-17T14:25:53.180Z,99346.94
2023-04-17T14:28:21.068Z,99345.41
2023-04-17T14:30:48.221Z,99348.06
2023-04-17T14:33:14.835Z,99366.00
2023-04-17T14:35:41.533Z,99377.47
2023-04-17T14:38:08.454Z,99374.09
2023-04-17T14:40:35.021Z,99401.16
2023-04-17T14:43:01.719Z,99384.44
2023-04-17T14:45:28.337Z,99376.13
2023-04-17T14:47:55.034Z,99404.63
2023-04-17T14:50:21.724Z,99408.28
2023-04-17T14:52:48.464Z,99400.59
2023-04-17T14:55:15.042Z,99406.03
2023-04-17T14:57:41.690Z,99403.63
2023-04-17T15:00:08.657Z,99415.91
2023-04-17T15:02:38.829Z,99409.41
2023-04-17T15:05:06.580Z,99420.84
2023-04-17T15:07:33.173Z,99401.75
2023-04-17T15:09:59.777Z,99397.31
2023-04-17T15:12:26.550Z,99391.16
2023-04-17T15:14:53.163Z,99411.06
2023-04-17T15:17:19.852Z,99398.88
2023-04-17T15:19:46.542Z,99393.63
2023-04-17T15:22:13.128Z,99389.34
2023-04-17T15:24:39.839Z,99386.69
2023-04-17T15:27:06.470Z,99400.53
2023-04-17T15:29:33.031Z,99398.97
2023-04-17T15:32:00.762Z,99414.00
2023-04-17T15:34:27.320Z,99413.19
2023-04-17T15:36:53.890Z,99403.13
2023-04-17T15:39:20.532Z,99411.81
2023-04-17T15:41:48.035Z,99396.31
2023-04-17T15:44:14.695Z,99413.66
2023-04-17T15:46:41.670Z,99390.22
2023-04-17T15:49:09.621Z,99389.38
2023-04-17T15:51:36.272Z,99388.59
2023-04-17T15:54:02.946Z,99386.06
2023-04-17T15:56:29.577Z,99397.41
2023-04-17T15:58:56.130Z,99402.59
2023-04-17T16:01:22.782Z,99404.38
2023-04-17T16:03:49.473Z,99408.81
2023-04-17T16:06:16.204Z,99398.47
2023-04-17T16:08:42.718Z,99417.59
2023-04-17T16:11:10.904Z,99410.59
2023-04-17T16:13:37.478Z,99423.50
2023-04-17T16:16:04.291Z,99414.81
2023-04-17T16:18:31.083Z,99424.41
2023-04-17T16:20:57.704Z,99429.50
2023-04-17T16:23:24.263Z,99421.78
2023-04-17T16:25:51.338Z,99421.88
2023-04-17T16:28:17.928Z,99422.72
2023-04-17T16:30:44.489Z,99424.50
2023-04-17T16:33:11.136Z,99427.06
2023-04-17T16:35:37.714Z,99441.06
2023-04-17T16:38:04.336Z,99444.56
2023-04-17T16:40:31.021Z,99446.31
2023-04-17T16:42:57.703Z,99456.75
2023-04-17T16:45:24.276Z,99461.00
2023-04-17T16:47:51.101Z,99462.72
2023-04-17T16:50:17.976Z,99475.81
2023-04-17T16:52:44.584Z,99509.84
2023-04-17T16:55:11.306Z,99536.84
2023-04-17T16:57:40.082Z,99553.38
2023-04-17T17:00:07.749Z,99548.16
2023-04-17T17:02:34.472Z,99584.75
2023-04-17T17:05:01.280Z,99583.84
2023-04-17T17:07:27.975Z,99603.81
2023-04-17T17:09:54.585Z,99585.56
2023-04-17T17:12:21.186Z,99586.38
2023-04-17T17:14:47.899Z,99601.03
2023-04-17T17:17:14.460Z,99580.13
2023-04-17T17:19:41.132Z,99607.91
2023-04-17T17:22:07.727Z,99595.72
2023-04-17T17:24:34.519Z,99634.84
2023-04-17T17:27:01.672Z,99612.28
2023-04-17T17:29:28.366Z,99596.53
2023-04-17T17:31:55.004Z,99619.03
2023-04-17T17:34:26.560Z,99617.34
2023-04-17T17:36:53.755Z,99620.88
2023-04-17T17:39:21.992Z,99633.06
2023-04-17T17:41:49.029Z,99625.25
2023-04-17T17:44:15.810Z,99610.53
2023-04-17T17:46:42.566Z,99647.03
2023-04-17T17:49:09.216Z,99615.69
2023-04-17T17:51:35.802Z,99636.50
2023-04-17T17:54:02.490Z,99655.59
2023-04-17T17:56:29.105Z,99663.38
2023-04-17T17:58:55.767Z,99686.00
2023-04-17T18:01:24.822Z,99665.25
2023-04-17T18:03:51.892Z,99695.72
2023-04-17T18:06:18.552Z,99711.34
2023-04-17T18:08:45.191Z,99674.94
2023-04-17T18:11:13.736Z,99661.88
2023-04-17T18:13:40.345Z,99688.75
2023-04-17T18:16:07.143Z,99686.13
2023-04-17T18:18:33.840Z,99685.28
2023-04-17T18:21:00.528Z,99689.63
2023-04-17T18:23:27.186Z,99707.88
2023-04-17T18:26:00.457Z,99716.66
2023-04-17T18:28:27.100Z,99690.66
2023-04-17T18:30:53.797Z,99708.06
2023-04-17T18:33:20.690Z,99675.09
2023-04-17T18:35:47.337Z,99677.69
2023-04-17T18:38:14.816Z,99681.16
2023-04-17T18:40:41.412Z,99657.50
2023-04-17T18:43:10.052Z,99695.44
2023-04-17T18:45:36.981Z,99667.53
2023-04-17T18:48:03.791Z,99662.16
2023-04-17T18:50:30.601Z,99658.66
2023-04-17T18:52:57.277Z,99651.69
2023-04-17T18:55:24.054Z,99656.88
2023-04-17T18:57:50.711Z,99656.13
2023-04-17T19:00:17.338Z,99649.31
2023-04-17T19:02:44.077Z,99665.03
2023-04-17T19:05:10.718Z,99664.19
2023-04-17T19:07:37.513Z,99659.00
2023-04-17T19:10:04.482Z,99671.94
2023-04-17T19:12:31.176Z,99676.19
2023-04-17T19:14:57.720Z,99661.53
2023-04-17T19:17:25.600Z,99676.34
2023-04-17T19:19:52.284Z,99672.84
2023-04-17T19:22:18.935Z,99675.50
2023-04-17T19:24:49.748Z,99676.31
2023-04-17T19:27:16.837Z,99674.69
2023-04-17T19:29:43.451Z,99672.94
2023-04-17T19:32:10.689Z,99678.91
2023-04-17T19:34:37.267Z,99692.03
2023-04-17T19:37:03.939Z,99688.84
2023-04-17T19:39:30.589Z,99690.75
2023-04-17T19:41:57.205Z,99693.50
2023-04-17T19:44:24.995Z,99701.44
2023-04-17T19:46:52.582Z,99699.81
2023-04-17T19:49:19.205Z,99719.81
2023-04-17T19:51:46.110Z,99712.94
2023-04-17T19:54:12.697Z,99707.63
2023-04-17T19:56:39.543Z,99710.03
2023-04-17T19:59:06.243Z,99720.41
2023-04-17T20:01:32.986Z,99740.53
2023-04-17T20:04:00.035Z,99733.66
2023-04-17T20:06:26.836Z,99724.13
2023-04-17T20:08:53.854Z,99739.84
2023-04-17T20:11:20.626Z,99746.84
2023-04-17T20:13:47.166Z,99759.91
2023-04-17T20:16:13.796Z,99785.13
2023-04-17T20:18:41.700Z,99791.25
2023-04-17T20:21:08.268Z,99798.25
2023-04-17T20:23:34.880Z,99806.97
2023-04-17T20:26:03.311Z,99813.06
2023-04-17T20:28:30.086Z,99806.16
2023-04-17T20:30:56.753Z,99811.41
2023-04-17T20:33:23.422Z,99806.22
2023-04-17T20:35:50.048Z,99792.44
2023-04-17T20:38:16.639Z,99803.69
2023-04-17T20:40:43.290Z,99793.34
2023-04-17T20:43:09.922Z,99802.00
2023-04-17T20:45:36.555Z,99776.81
2023-04-17T20:48:03.342Z,99798.34
2023-04-17T20:50:30.010Z,99784.41
2023-04-17T20:52:56.648Z,99767.00
2023-04-17T20:55:24.255Z,99773.03
2023-04-17T20:57:51.018Z,99772.94
2023-04-17T21:00:18.099Z,99821.38
2023-04-17T21:02:44.887Z,99788.34
2023-04-17T21:05:11.471Z,99781.34
2023-04-17T21:07:38.075Z,99829.91
2023-04-17T21:10:05.245Z,99798.72
2023-04-17T21:12:35.087Z,99805.66
2023-04-17T21:15:01.890Z,99795.16
2023-04-17T21:17:30.213Z,99795.97
2023-04-17T21:19:56.845Z,99788.22
2023-04-17T21:22:23.397Z,99780.44
2023-04-17T21:24:49.999Z,99784.06
2023-04-17T21:27:16.767Z,99784.09
2023-04-17T21:29:43.386Z,99792.78
2023-04-17T21:32:10.408Z,99798.84
2023-04-17T21:34:37.011Z,99783.19
2023-04-17T21:37:04.885Z,99791.88
2023-04-17T21:39:33.274Z,99786.75
2023-04-17T21:42:00.252Z,99790.28
2023-04-17T21:44:26.800Z,99788.59
2023-04-17T21:46:53.427Z,99788.63
2023-04-17T21:49:20.773Z,99788.63
2023-04-17T21:51:47.329Z,99797.25
2023-04-17T21:54:14.290Z,99792.97
2023-04-17T21:56:41.219Z,99794.66
2023-04-17T21:59:07.760Z,99788.50
2023-04-17T22:01:34.533Z,99812.72
2023-04-17T22:04:01.368Z,99809.22
2023-04-17T22:06:27.986Z,99814.50
2023-04-17T22:08:54.617Z,99813.69
2023-04-17T22:11:21.302Z,99818.97
2023-04-17T22:13:47.808Z,99832.88
2023-04-17T22:16:14.431Z,99846.84
2023-04-17T22:18:41.071Z,99846.03
2023-04-17T22:21:07.660Z,99853.00
2023-04-17T22:23:34.252Z,99868.59
2023-04-17T22:26:00.813Z,99867.81
2023-04-17T22:28:31.052Z,99858.28
2023-04-17T22:30:58.238Z,99880.84
2023-04-17T22:33:24.900Z,99862.69
2023-04-17T22:35:51.585Z,99873.97
2023-04-17T22:38:19.352Z,99885.25
2023-04-17T22:40:45.923Z,99889.59
2023-04-17T22:43:12.497Z,99891.28
2023-04-17T22:45:39.054Z,99887.84
2023-04-17T22:48:05.874Z,99889.59
2023-04-17T22:50:32.453Z,99880.06
2023-04-17T22:52:59.047Z,99860.19
2023-04-17T22:55:25.630Z,99858.44
2023-04-17T22:57:52.223Z,99863.63
2023-04-17T23:00:20.195Z,99842.88
2023-04-17T23:02:47.479Z,99868.81
2023-04-17T23:05:14.423Z,99891.31
2023-04-17T23:07:41.251Z,99923.34
2023-04-17T23:10:08.101Z,99934.56
2023-04-17T23:12:34.829Z,99893.91
2023-04-17T23:15:01.389Z,99892.22
2023-04-17T23:17:28.167Z,99874.91
2023-04-17T23:19:54.747Z,99868.84
2023-04-17T23:22:21.351Z,99862.78
2023-04-17T23:24:47.919Z,99891.28
2023-04-17T23:27:14.459Z,99890.41
2023-04-17T23:29:40.964Z,99879.97
2023-04-17T23:32:08.014Z,99886.81
2023-04-17T23:34:34.736Z,99907.50
2023-04-17T23:37:02.719Z,99875.38
2023-04-17T23:39:29.467Z,99926.34
2023-04-17T23:41:55.993Z,99906.41
2023-04-17T23:44:22.554Z,99889.97
2023-04-17T23:46:49.240Z,99942.00
2023-04-17T23:49:15.802Z,99960.25
2023-04-17T23:51:42.342Z,99976.75
2023-04-17T23:54:09.003Z,99986.31
2023-04-17T23:56:35.798Z,99963.81
2023-04-17T23:59:02.398Z,99958.53
